sensor_id;sensor_type;location;lat;lon;timestamp;P1;durP1;ratioP1;P2;durP2;ratioP2
3567;SDS011;1798;48.486;9.232;2022-07-06T00:00:21;8.23;;;3.83;;
3567;SDS011;1798;48.486;9.232;2022-07-06T00:02:47;6.83;;;2.80;;
3567;SDS011;1798;48.486;9.232;2022-07-06T00:05:14;6.20;;;2.90;;
3567;SDS011;1798;48.486;9.232;2022-07-06T00:07:42;11.50;;;3.97;;
3567;SDS011;1798;48.486;9.232;2022-07-06T00:10:09;7.07;;;3.70;;
3567;SDS011;1798;48.486;9.232;2022-07-06T00:12:36;7.43;;;3.50;;
3567;SDS011;1798;48.486;9.232;2022-07-06T00:15:03;4.93;;;3.13;;
3567;SDS011;1798;48.486;9.232;2022-07-06T00:17:31;38.97;;;4.33;;
3567;SDS011;1798;48.486;9.232;2022-07-06T00:19:57;7.17;;;3.20;;
3567;SDS011;1798;48.486;9.232;2022-07-06T00:22:24;5.70;;;3.60;;
3567;SDS011;1798;48.486;9.232;2022-07-06T00:24:52;6.20;;;3.00;;
3567;SDS011;1798;48.486;9.232;2022-07-06T00:27:19;10.80;;;4.10;;
3567;SDS011;1798;48.486;9.232;2022-07-06T00:29:46;9.60;;;3.80;;
3567;SDS011;1798;48.486;9.232;2022-07-06T00:32:12;9.33;;;3.73;;
3567;SDS011;1798;48.486;9.232;2022-07-06T00:34:39;5.80;;;3.60;;
3567;SDS011;1798;48.486;9.232;2022-07-06T00:37:06;10.17;;;4.50;;
3567;SDS011;1798;48.486;9.232;2022-07-06T00:39:33;6.53;;;3.00;;
3567;SDS011;1798;48.486;9.232;2022-07-06T00:42:02;6.60;;;3.60;;
3567;SDS011;1798;48.486;9.232;2022-07-06T00:44:29;7.23;;;3.40;;
3567;SDS011;1798;48.486;9.232;2022-07-06T00:46:58;14.40;;;3.40;;
3567;SDS011;1798;48.486;9.232;2022-07-06T00:49:25;14.63;;;3.70;;
3567;SDS011;1798;48.486;9.232;2022-07-06T00:52:09;7.77;;;3.63;;
3567;SDS011;1798;48.486;9.232;2022-07-06T00:54:36;6.63;;;4.20;;
3567;SDS011;1798;48.486;9.232;2022-07-06T00:57:05;6.07;;;3.10;;
3567;SDS011;1798;48.486;9.232;2022-07-06T00:59:32;6.43;;;3.40;;
3567;SDS011;1798;48.486;9.232;2022-07-06T01:01:59;7.07;;;3.30;;
3567;SDS011;1798;48.486;9.232;2022-07-06T01:04:26;7.80;;;3.47;;
3567;SDS011;1798;48.486;9.232;2022-07-06T01:06:53;15.80;;;3.70;;
3567;SDS011;1798;48.486;9.232;2022-07-06T01:09:20;6.57;;;3.70;;
3567;SDS011;1798;48.486;9.232;2022-07-06T01:11:47;10.40;;;4.40;;
3567;SDS011;1798;48.486;9.232;2022-07-06T01:14:15;5.00;;;3.17;;
3567;SDS011;1798;48.486;9.232;2022-07-06T01:16:42;6.30;;;3.77;;
3567;SDS011;1798;48.486;9.232;2022-07-06T01:19:09;8.23;;;3.57;;
3567;SDS011;1798;48.486;9.232;2022-07-06T01:21:38;7.03;;;4.30;;
3567;SDS011;1798;48.486;9.232;2022-07-06T01:24:06;6.30;;;3.40;;
3567;SDS011;1798;48.486;9.232;2022-07-06T01:26:33;12.13;;;3.57;;
3567;SDS011;1798;48.486;9.232;2022-07-06T01:29:00;10.47;;;4.53;;
3567;SDS011;1798;48.486;9.232;2022-07-06T01:31:27;4.90;;;3.03;;
3567;SDS011;1798;48.486;9.232;2022-07-06T01:33:54;12.27;;;3.23;;
3567;SDS011;1798;48.486;9.232;2022-07-06T01:36:22;6.63;;;3.33;;
3567;SDS011;1798;48.486;9.232;2022-07-06T01:38:51;8.53;;;3.30;;
3567;SDS011;1798;48.486;9.232;2022-07-06T01:41:19;8.60;;;3.80;;
3567;SDS011;1798;48.486;9.232;2022-07-06T01:43:47;8.47;;;3.40;;
3567;SDS011;1798;48.486;9.232;2022-07-06T01:46:14;5.60;;;3.40;;
3567;SDS011;1798;48.486;9.232;2022-07-06T01:48:41;8.53;;;3.60;;
3567;SDS011;1798;48.486;9.232;2022-07-06T01:51:08;7.37;;;3.43;;
3567;SDS011;1798;48.486;9.232;2022-07-06T01:53:34;5.00;;;3.47;;
3567;SDS011;1798;48.486;9.232;2022-07-06T01:56:03;14.00;;;3.73;;
3567;SDS011;1798;48.486;9.232;2022-07-06T01:58:30;8.87;;;3.50;;
3567;SDS011;1798;48.486;9.232;2022-07-06T02:00:57;6.50;;;3.40;;
3567;SDS011;1798;48.486;9.232;2022-07-06T02:03:24;7.93;;;3.73;;
3567;SDS011;1798;48.486;9.232;2022-07-06T02:05:51;6.83;;;3.60;;
3567;SDS011;1798;48.486;9.232;2022-07-06T02:08:18;8.90;;;3.80;;
3567;SDS011;1798;48.486;9.232;2022-07-06T02:10:45;9.50;;;3.53;;
3567;SDS011;1798;48.486;9.232;2022-07-06T02:13:13;6.13;;;3.43;;
3567;SDS011;1798;48.486;9.232;2022-07-06T02:15:40;9.67;;;3.90;;
3567;SDS011;1798;48.486;9.232;2022-07-06T02:18:07;21.47;;;5.80;;
3567;SDS011;1798;48.486;9.232;2022-07-06T02:20:33;8.03;;;3.60;;
3567;SDS011;1798;48.486;9.232;2022-07-06T02:23:00;6.67;;;3.50;;
3567;SDS011;1798;48.486;9.232;2022-07-06T02:25:27;22.97;;;4.60;;
3567;SDS011;1798;48.486;9.232;2022-07-06T02:27:54;8.60;;;3.70;;
3567;SDS011;1798;48.486;9.232;2022-07-06T02:30:22;7.80;;;4.00;;
3567;SDS011;1798;48.486;9.232;2022-07-06T02:32:49;5.30;;;3.00;;
3567;SDS011;1798;48.486;9.232;2022-07-06T02:35:16;5.93;;;3.70;;
3567;SDS011;1798;48.486;9.232;2022-07-06T02:37:42;6.43;;;3.90;;
3567;SDS011;1798;48.486;9.232;2022-07-06T02:40:10;4.83;;;3.40;;
3567;SDS011;1798;48.486;9.232;2022-07-06T02:42:37;9.37;;;3.63;;
3567;SDS011;1798;48.486;9.232;2022-07-06T02:45:04;10.43;;;3.63;;
3567;SDS011;1798;48.486;9.232;2022-07-06T02:47:33;5.27;;;3.50;;
3567;SDS011;1798;48.486;9.232;2022-07-06T02:50:00;4.93;;;3.13;;
3567;SDS011;1798;48.486;9.232;2022-07-06T02:52:27;6.83;;;3.70;;
3567;SDS011;1798;48.486;9.232;2022-07-06T02:54:54;5.50;;;3.47;;
3567;SDS011;1798;48.486;9.232;2022-07-06T02:57:20;7.70;;;3.77;;
3567;SDS011;1798;48.486;9.232;2022-07-06T02:59:48;5.77;;;3.83;;
3567;SDS011;1798;48.486;9.232;2022-07-06T03:02:15;7.50;;;4.00;;
3567;SDS011;1798;48.486;9.232;2022-07-06T03:04:44;6.53;;;3.63;;
3567;SDS011;1798;48.486;9.232;2022-07-06T03:07:10;6.20;;;4.13;;
3567;SDS011;1798;48.486;9.232;2022-07-06T03:09:38;7.90;;;3.70;;
3567;SDS011;1798;48.486;9.232;2022-07-06T03:12:06;12.20;;;4.00;;
3567;SDS011;1798;48.486;9.232;2022-07-06T03:14:33;6.47;;;3.73;;
3567;SDS011;1798;48.486;9.232;2022-07-06T03:17:00;7.23;;;3.80;;
3567;SDS011;1798;48.486;9.232;2022-07-06T03:19:27;12.00;;;3.83;;
3567;SDS011;1798;48.486;9.232;2022-07-06T03:21:55;13.93;;;3.50;;
3567;SDS011;1798;48.486;9.232;2022-07-06T03:24:22;10.03;;;3.77;;
3567;SDS011;1798;48.486;9.232;2022-07-06T03:26:48;10.40;;;4.20;;
3567;SDS011;1798;48.486;9.232;2022-07-06T03:29:15;8.33;;;4.03;;
3567;SDS011;1798;48.486;9.232;2022-07-06T03:31:42;12.30;;;4.13;;
3567;SDS011;1798;48.486;9.232;2022-07-06T03:34:09;12.47;;;3.70;;
3567;SDS011;1798;48.486;9.232;2022-07-06T03:36:36;13.60;;;3.87;;
3567;SDS011;1798;48.486;9.232;2022-07-06T03:39:04;10.80;;;4.50;;
3567;SDS011;1798;48.486;9.232;2022-07-06T03:41:31;8.23;;;4.00;;
3567;SDS011;1798;48.486;9.232;2022-07-06T03:43:58;6.83;;;4.00;;
3567;SDS011;1798;48.486;9.232;2022-07-06T03:46:25;13.83;;;4.23;;
3567;SDS011;1798;48.486;9.232;2022-07-06T03:48:52;7.13;;;3.53;;
3567;SDS011;1798;48.486;9.232;2022-07-06T03:51:19;10.07;;;4.43;;
3567;SDS011;1798;48.486;9.232;2022-07-06T03:53:46;7.13;;;3.80;;
3567;SDS011;1798;48.486;9.232;2022-07-06T03:56:14;6.47;;;3.67;;
3567;SDS011;1798;48.486;9.232;2022-07-06T03:58:58;10.10;;;3.87;;
3567;SDS011;1798;48.486;9.232;2022-07-06T04:01:25;7.10;;;4.40;;
3567;SDS011;1798;48.486;9.232;2022-07-06T04:03:52;7.20;;;4.13;;
3567;SDS011;1798;48.486;9.232;2022-07-06T04:06:19;8.80;;;4.47;;
3567;SDS011;1798;48.486;9.232;2022-07-06T04:08:47;11.53;;;4.27;;
3567;SDS011;1798;48.486;9.232;2022-07-06T04:11:15;8.27;;;3.73;;
3567;SDS011;1798;48.486;9.232;2022-07-06T04:13:41;10.03;;;4.03;;
3567;SDS011;1798;48.486;9.232;2022-07-06T04:16:08;13.73;;;3.67;;
3567;SDS011;1798;48.486;9.232;2022-07-06T04:18:35;6.70;;;3.47;;
3567;SDS011;1798;48.486;9.232;2022-07-06T04:21:02;20.00;;;4.20;;
3567;SDS011;1798;48.486;9.232;2022-07-06T04:23:29;7.20;;;4.40;;
3567;SDS011;1798;48.486;9.232;2022-07-06T04:25:56;12.50;;;3.70;;
3567;SDS011;1798;48.486;9.232;2022-07-06T04:28:24;9.60;;;4.37;;
3567;SDS011;1798;48.486;9.232;2022-07-06T04:30:51;7.00;;;4.00;;
3567;SDS011;1798;48.486;9.232;2022-07-06T04:33:18;6.93;;;3.63;;
3567;SDS011;1798;48.486;9.232;2022-07-06T04:35:45;8.80;;;3.63;;
3567;SDS011;1798;48.486;9.232;2022-07-06T04:38:12;7.97;;;4.03;;
3567;SDS011;1798;48.486;9.232;2022-07-06T04:40:39;9.40;;;4.07;;
3567;SDS011;1798;48.486;9.232;2022-07-06T04:43:06;6.23;;;3.90;;
3567;SDS011;1798;48.486;9.232;2022-07-06T04:45:34;13.10;;;4.40;;
3567;SDS011;1798;48.486;9.232;2022-07-06T04:48:01;7.63;;;4.10;;
3567;SDS011;1798;48.486;9.232;2022-07-06T04:50:28;13.47;;;3.30;;
3567;SDS011;1798;48.486;9.232;2022-07-06T04:52:57;9.60;;;4.70;;
3567;SDS011;1798;48.486;9.232;2022-07-06T04:55:24;8.30;;;4.40;;
3567;SDS011;1798;48.486;9.232;2022-07-06T04:57:52;8.37;;;4.37;;
3567;SDS011;1798;48.486;9.232;2022-07-06T05:00:20;7.60;;;3.70;;
3567;SDS011;1798;48.486;9.232;2022-07-06T05:02:49;7.17;;;4.00;;
3567;SDS011;1798;48.486;9.232;2022-07-06T05:05:17;7.93;;;4.03;;
3567;SDS011;1798;48.486;9.232;2022-07-06T05:07:44;8.07;;;4.53;;
3567;SDS011;1798;48.486;9.232;2022-07-06T05:10:11;12.17;;;4.73;;
3567;SDS011;1798;48.486;9.232;2022-07-06T05:12:38;8.60;;;4.27;;
3567;SDS011;1798;48.486;9.232;2022-07-06T05:15:06;8.37;;;4.63;;
3567;SDS011;1798;48.486;9.232;2022-07-06T05:17:34;11.57;;;4.40;;
3567;SDS011;1798;48.486;9.232;2022-07-06T05:20:03;9.80;;;4.80;;
3567;SDS011;1798;48.486;9.232;2022-07-06T05:22:31;10.07;;;4.50;;
3567;SDS011;1798;48.486;9.232;2022-07-06T05:24:59;7.17;;;4.43;;
3567;SDS011;1798;48.486;9.232;2022-07-06T05:27:26;10.63;;;5.00;;
3567;SDS011;1798;48.486;9.232;2022-07-06T05:29:53;16.53;;;4.53;;
3567;SDS011;1798;48.486;9.232;2022-07-06T05:32:20;10.80;;;4.47;;
3567;SDS011;1798;48.486;9.232;2022-07-06T05:34:47;15.43;;;4.33;;
3567;SDS011;1798;48.486;9.232;2022-07-06T05:37:15;9.87;;;4.40;;
3567;SDS011;1798;48.486;9.232;2022-07-06T05:39:42;10.40;;;4.80;;
3567;SDS011;1798;48.486;9.232;2022-07-06T05:42:10;7.83;;;4.93;;
3567;SDS011;1798;48.486;9.232;2022-07-06T05:44:37;6.70;;;4.17;;
3567;SDS011;1798;48.486;9.232;2022-07-06T05:47:04;6.90;;;4.37;;
3567;SDS011;1798;48.486;9.232;2022-07-06T05:49:48;6.53;;;4.20;;
3567;SDS011;1798;48.486;9.232;2022-07-06T05:52:33;10.97;;;4.10;;
3567;SDS011;1798;48.486;9.232;2022-07-06T05:55:00;6.47;;;4.37;;
3567;SDS011;1798;48.486;9.232;2022-07-06T05:57:28;12.00;;;5.50;;
3567;SDS011;1798;48.486;9.232;2022-07-06T05:59:55;11.77;;;5.03;;
3567;SDS011;1798;48.486;9.232;2022-07-06T06:02:22;8.63;;;4.73;;
3567;SDS011;1798;48.486;9.232;2022-07-06T06:04:49;9.23;;;5.23;;
3567;SDS011;1798;48.486;9.232;2022-07-06T06:07:17;8.00;;;4.10;;
3567;SDS011;1798;48.486;9.232;2022-07-06T06:09:49;9.00;;;4.77;;
3567;SDS011;1798;48.486;9.232;2022-07-06T06:12:16;8.43;;;4.73;;
3567;SDS011;1798;48.486;9.232;2022-07-06T06:14:43;10.10;;;4.77;;
3567;SDS011;1798;48.486;9.232;2022-07-06T06:17:10;15.00;;;5.80;;
3567;SDS011;1798;48.486;9.232;2022-07-06T06:19:37;12.50;;;5.00;;
3567;SDS011;1798;48.486;9.232;2022-07-06T06:22:04;7.57;;;4.57;;
3567;SDS011;1798;48.486;9.232;2022-07-06T06:24:32;10.00;;;4.87;;
3567;SDS011;1798;48.486;9.232;2022-07-06T06:27:00;7.80;;;4.43;;
3567;SDS011;1798;48.486;9.232;2022-07-06T06:29:28;8.13;;;4.80;;
3567;SDS011;1798;48.486;9.232;2022-07-06T06:31:56;8.63;;;4.77;;
3567;SDS011;1798;48.486;9.232;2022-07-06T06:34:24;8.50;;;4.87;;
3567;SDS011;1798;48.486;9.232;2022-07-06T06:36:52;8.37;;;3.67;;
3567;SDS011;1798;48.486;9.232;2022-07-06T06:39:19;9.30;;;5.20;;
3567;SDS011;1798;48.486;9.232;2022-07-06T06:41:46;7.77;;;4.80;;
3567;SDS011;1798;48.486;9.232;2022-07-06T06:44:17;12.57;;;5.40;;
3567;SDS011;1798;48.486;9.232;2022-07-06T06:46:48;10.60;;;4.73;;
3567;SDS011;1798;48.486;9.232;2022-07-06T06:49:15;12.70;;;5.70;;
3567;SDS011;1798;48.486;9.232;2022-07-06T06:51:43;12.97;;;5.47;;
3567;SDS011;1798;48.486;9.232;2022-07-06T06:54:10;9.20;;;4.97;;
3567;SDS011;1798;48.486;9.232;2022-07-06T06:56:41;12.40;;;5.00;;
3567;SDS011;1798;48.486;9.232;2022-07-06T06:59:11;13.17;;;5.57;;
3567;SDS011;1798;48.486;9.232;2022-07-06T07:01:40;6.77;;;4.70;;
3567;SDS011;1798;48.486;9.232;2022-07-06T07:04:09;11.07;;;5.63;;
3567;SDS011;1798;48.486;9.232;2022-07-06T07:06:36;11.73;;;5.60;;
3567;SDS011;1798;48.486;9.232;2022-07-06T07:09:04;16.33;;;5.83;;
3567;SDS011;1798;48.486;9.232;2022-07-06T07:11:34;8.27;;;5.03;;
3567;SDS011;1798;48.486;9.232;2022-07-06T07:14:01;8.43;;;5.00;;
3567;SDS011;1798;48.486;9.232;2022-07-06T07:16:29;17.07;;;4.93;;
3567;SDS011;1798;48.486;9.232;2022-07-06T07:18:58;7.00;;;4.50;;
3567;SDS011;1798;48.486;9.232;2022-07-06T07:21:25;8.47;;;5.83;;
3567;SDS011;1798;48.486;9.232;2022-07-06T07:23:56;8.53;;;5.43;;
3567;SDS011;1798;48.486;9.232;2022-07-06T07:26:23;12.00;;;4.43;;
3567;SDS011;1798;48.486;9.232;2022-07-06T07:28:50;8.30;;;4.60;;
3567;SDS011;1798;48.486;9.232;2022-07-06T07:31:17;7.47;;;4.63;;
3567;SDS011;1798;48.486;9.232;2022-07-06T07:33:45;11.03;;;4.87;;
3567;SDS011;1798;48.486;9.232;2022-07-06T07:36:14;11.07;;;5.00;;
3567;SDS011;1798;48.486;9.232;2022-07-06T07:38:41;7.73;;;4.63;;
3567;SDS011;1798;48.486;9.232;2022-07-06T07:41:08;8.43;;;5.10;;
3567;SDS011;1798;48.486;9.232;2022-07-06T07:43:39;9.37;;;4.23;;
3567;SDS011;1798;48.486;9.232;2022-07-06T07:46:10;11.60;;;5.20;;
3567;SDS011;1798;48.486;9.232;2022-07-06T07:48:38;12.87;;;6.10;;
3567;SDS011;1798;48.486;9.232;2022-07-06T07:51:05;10.43;;;5.20;;
3567;SDS011;1798;48.486;9.232;2022-07-06T07:53:38;9.07;;;4.90;;
3567;SDS011;1798;48.486;9.232;2022-07-06T07:56:05;11.50;;;5.40;;
3567;SDS011;1798;48.486;9.232;2022-07-06T07:58:33;7.10;;;4.63;;
3567;SDS011;1798;48.486;9.232;2022-07-06T08:01:01;12.83;;;5.30;;
3567;SDS011;1798;48.486;9.232;2022-07-06T08:03:29;9.80;;;5.00;;
3567;SDS011;1798;48.486;9.232;2022-07-06T08:05:57;9.03;;;5.43;;
3567;SDS011;1798;48.486;9.232;2022-07-06T08:08:25;19.30;;;5.90;;
3567;SDS011;1798;48.486;9.232;2022-07-06T08:10:53;10.97;;;5.30;;
3567;SDS011;1798;48.486;9.232;2022-07-06T08:13:21;7.60;;;4.83;;
3567;SDS011;1798;48.486;9.232;2022-07-06T08:15:48;8.30;;;4.73;;
3567;SDS011;1798;48.486;9.232;2022-07-06T08:18:15;12.10;;;5.70;;
3567;SDS011;1798;48.486;9.232;2022-07-06T08:20:42;9.17;;;4.80;;
3567;SDS011;1798;48.486;9.232;2022-07-06T08:23:09;13.30;;;5.77;;
3567;SDS011;1798;48.486;9.232;2022-07-06T08:25:37;12.23;;;5.50;;
3567;SDS011;1798;48.486;9.232;2022-07-06T08:28:05;13.87;;;5.50;;
3567;SDS011;1798;48.486;9.232;2022-07-06T08:30:33;7.23;;;4.87;;
3567;SDS011;1798;48.486;9.232;2022-07-06T08:33:00;9.77;;;5.30;;
3567;SDS011;1798;48.486;9.232;2022-07-06T08:35:28;9.07;;;4.77;;
3567;SDS011;1798;48.486;9.232;2022-07-06T08:37:56;13.50;;;6.53;;
3567;SDS011;1798;48.486;9.232;2022-07-06T08:40:23;9.53;;;5.87;;
3567;SDS011;1798;48.486;9.232;2022-07-06T08:42:52;8.07;;;5.60;;
3567;SDS011;1798;48.486;9.232;2022-07-06T08:45:22;7.93;;;5.00;;
3567;SDS011;1798;48.486;9.232;2022-07-06T08:47:53;12.63;;;5.03;;
3567;SDS011;1798;48.486;9.232;2022-07-06T08:50:21;11.97;;;4.97;;
3567;SDS011;1798;48.486;9.232;2022-07-06T08:52:48;12.03;;;5.53;;
3567;SDS011;1798;48.486;9.232;2022-07-06T08:55:16;8.20;;;5.10;;
3567;SDS011;1798;48.486;9.232;2022-07-06T08:57:44;7.70;;;5.10;;
3567;SDS011;1798;48.486;9.232;2022-07-06T09:00:13;8.97;;;5.57;;
3567;SDS011;1798;48.486;9.232;2022-07-06T09:02:42;10.10;;;6.00;;
3567;SDS011;1798;48.486;9.232;2022-07-06T09:05:10;10.60;;;4.60;;
3567;SDS011;1798;48.486;9.232;2022-07-06T09:07:41;11.80;;;5.23;;
3567;SDS011;1798;48.486;9.232;2022-07-06T09:10:09;11.60;;;5.47;;
3567;SDS011;1798;48.486;9.232;2022-07-06T09:12:36;8.50;;;5.57;;
3567;SDS011;1798;48.486;9.232;2022-07-06T09:15:03;7.67;;;5.00;;
3567;SDS011;1798;48.486;9.232;2022-07-06T09:17:31;12.67;;;6.27;;
3567;SDS011;1798;48.486;9.232;2022-07-06T09:20:00;19.10;;;5.57;;
3567;SDS011;1798;48.486;9.232;2022-07-06T09:22:28;10.20;;;5.80;;
3567;SDS011;1798;48.486;9.232;2022-07-06T09:25:03;12.90;;;5.00;;
3567;SDS011;1798;48.486;9.232;2022-07-06T09:27:31;19.83;;;6.80;;
3567;SDS011;1798;48.486;9.232;2022-07-06T09:29:59;7.03;;;4.50;;
3567;SDS011;1798;48.486;9.232;2022-07-06T09:32:27;13.03;;;5.20;;
3567;SDS011;1798;48.486;9.232;2022-07-06T09:34:54;13.10;;;4.80;;
3567;SDS011;1798;48.486;9.232;2022-07-06T09:37:23;10.83;;;6.13;;
3567;SDS011;1798;48.486;9.232;2022-07-06T09:39:50;7.10;;;4.60;;
3567;SDS011;1798;48.486;9.232;2022-07-06T09:42:17;8.23;;;5.13;;
3567;SDS011;1798;48.486;9.232;2022-07-06T09:44:50;14.90;;;5.57;;
3567;SDS011;1798;48.486;9.232;2022-07-06T09:47:17;13.63;;;5.50;;
3567;SDS011;1798;48.486;9.232;2022-07-06T09:49:45;9.07;;;5.60;;
3567;SDS011;1798;48.486;9.232;2022-07-06T09:52:13;10.57;;;4.97;;
3567;SDS011;1798;48.486;9.232;2022-07-06T09:54:41;7.67;;;4.43;;
3567;SDS011;1798;48.486;9.232;2022-07-06T09:57:08;10.50;;;5.27;;
3567;SDS011;1798;48.486;9.232;2022-07-06T09:59:35;9.83;;;5.00;;
3567;SDS011;1798;48.486;9.232;2022-07-06T10:02:03;6.60;;;4.43;;
3567;SDS011;1798;48.486;9.232;2022-07-06T10:04:32;6.30;;;4.30;;
3567;SDS011;1798;48.486;9.232;2022-07-06T10:06:59;9.07;;;5.10;;
3567;SDS011;1798;48.486;9.232;2022-07-06T10:09:27;9.93;;;4.97;;
3567;SDS011;1798;48.486;9.232;2022-07-06T10:11:57;9.57;;;5.30;;
3567;SDS011;1798;48.486;9.232;2022-07-06T10:14:25;8.43;;;4.67;;
3567;SDS011;1798;48.486;9.232;2022-07-06T10:16:55;10.13;;;5.70;;
3567;SDS011;1798;48.486;9.232;2022-07-06T10:19:22;9.87;;;4.77;;
3567;SDS011;1798;48.486;9.232;2022-07-06T10:21:49;12.23;;;5.60;;
3567;SDS011;1798;48.486;9.232;2022-07-06T10:24:18;6.47;;;4.57;;
3567;SDS011;1798;48.486;9.232;2022-07-06T10:26:46;6.33;;;4.23;;
3567;SDS011;1798;48.486;9.232;2022-07-06T10:29:18;6.67;;;4.50;;
3567;SDS011;1798;48.486;9.232;2022-07-06T10:31:46;6.83;;;4.80;;
3567;SDS011;1798;48.486;9.232;2022-07-06T10:34:17;10.03;;;4.77;;
3567;SDS011;1798;48.486;9.232;2022-07-06T10:36:48;10.77;;;5.23;;
3567;SDS011;1798;48.486;9.232;2022-07-06T10:39:15;7.07;;;4.50;;
3567;SDS011;1798;48.486;9.232;2022-07-06T10:42:02;6.87;;;4.27;;
3567;SDS011;1798;48.486;9.232;2022-07-06T10:44:31;9.00;;;6.73;;
3567;SDS011;1798;48.486;9.232;2022-07-06T10:47:00;16.57;;;5.13;;
3567;SDS011;1798;48.486;9.232;2022-07-06T10:49:28;8.20;;;4.83;;
3567;SDS011;1798;48.486;9.232;2022-07-06T10:51:56;9.20;;;5.07;;
3567;SDS011;1798;48.486;9.232;2022-07-06T10:54:24;11.70;;;4.63;;
3567;SDS011;1798;48.486;9.232;2022-07-06T10:56:51;8.90;;;4.50;;
3567;SDS011;1798;48.486;9.232;2022-07-06T10:59:19;10.03;;;4.87;;
3567;SDS011;1798;48.486;9.232;2022-07-06T11:04:40;8.23;;;5.07;;
3567;SDS011;1798;48.486;9.232;2022-07-06T11:07:08;9.90;;;4.77;;
3567;SDS011;1798;48.486;9.232;2022-07-06T11:09:36;6.70;;;4.77;;
3567;SDS011;1798;48.486;9.232;2022-07-06T11:12:11;9.30;;;4.77;;
3567;SDS011;1798;48.486;9.232;2022-07-06T11:14:39;8.63;;;4.60;;
3567;SDS011;1798;48.486;9.232;2022-07-06T11:17:06;8.50;;;4.57;;
3567;SDS011;1798;48.486;9.232;2022-07-06T11:19:37;8.73;;;5.23;;
3567;SDS011;1798;48.486;9.232;2022-07-06T11:22:05;8.70;;;4.80;;
3567;SDS011;1798;48.486;9.232;2022-07-06T11:24:33;6.57;;;4.20;;
3567;SDS011;1798;48.486;9.232;2022-07-06T11:27:03;8.43;;;4.50;;
3567;SDS011;1798;48.486;9.232;2022-07-06T11:29:32;16.60;;;5.60;;
3567;SDS011;1798;48.486;9.232;2022-07-06T11:32:00;16.43;;;5.30;;
3567;SDS011;1798;48.486;9.232;2022-07-06T11:34:29;10.57;;;5.43;;
3567;SDS011;1798;48.486;9.232;2022-07-06T11:36:59;8.23;;;5.33;;
3567;SDS011;1798;48.486;9.232;2022-07-06T11:39:27;5.47;;;4.23;;
3567;SDS011;1798;48.486;9.232;2022-07-06T11:41:54;9.43;;;5.20;;
3567;SDS011;1798;48.486;9.232;2022-07-06T11:44:21;9.73;;;4.80;;
3567;SDS011;1798;48.486;9.232;2022-07-06T11:46:48;6.37;;;4.43;;
3567;SDS011;1798;48.486;9.232;2022-07-06T11:49:15;11.63;;;4.77;;
3567;SDS011;1798;48.486;9.232;2022-07-06T11:51:42;14.13;;;5.63;;
3567;SDS011;1798;48.486;9.232;2022-07-06T11:54:12;8.57;;;4.70;;
3567;SDS011;1798;48.486;9.232;2022-07-06T11:56:45;12.20;;;5.20;;
3567;SDS011;1798;48.486;9.232;2022-07-06T11:59:12;8.93;;;4.67;;
3567;SDS011;1798;48.486;9.232;2022-07-06T12:01:40;8.77;;;4.93;;
3567;SDS011;1798;48.486;9.232;2022-07-06T12:04:09;8.67;;;4.40;;
3567;SDS011;1798;48.486;9.232;2022-07-06T12:06:36;7.80;;;5.10;;
3567;SDS011;1798;48.486;9.232;2022-07-06T12:09:03;9.10;;;5.27;;
3567;SDS011;1798;48.486;9.232;2022-07-06T12:11:33;5.97;;;3.87;;
3567;SDS011;1798;48.486;9.232;2022-07-06T12:14:01;15.63;;;4.90;;
3567;SDS011;1798;48.486;9.232;2022-07-06T12:16:29;5.67;;;4.30;;
3567;SDS011;1798;48.486;9.232;2022-07-06T12:18:59;7.83;;;4.37;;
3567;SDS011;1798;48.486;9.232;2022-07-06T12:21:27;6.17;;;4.17;;
3567;SDS011;1798;48.486;9.232;2022-07-06T12:23:54;9.73;;;5.43;;
3567;SDS011;1798;48.486;9.232;2022-07-06T12:26:22;8.77;;;4.83;;
3567;SDS011;1798;48.486;9.232;2022-07-06T12:29:02;10.07;;;4.80;;
3567;SDS011;1798;48.486;9.232;2022-07-06T12:31:31;13.90;;;5.27;;
3567;SDS011;1798;48.486;9.232;2022-07-06T12:33:59;7.53;;;4.80;;
3567;SDS011;1798;48.486;9.232;2022-07-06T12:36:26;7.73;;;5.00;;
3567;SDS011;1798;48.486;9.232;2022-07-06T12:38:53;11.90;;;4.97;;
3567;SDS011;1798;48.486;9.232;2022-07-06T12:41:30;9.47;;;4.80;;
3567;SDS011;1798;48.486;9.232;2022-07-06T12:44:06;14.00;;;5.10;;
3567;SDS011;1798;48.486;9.232;2022-07-06T12:46:34;12.23;;;4.60;;
3567;SDS011;1798;48.486;9.232;2022-07-06T12:49:03;6.40;;;4.30;;
3567;SDS011;1798;48.486;9.232;2022-07-06T12:51:51;8.77;;;4.80;;
3567;SDS011;1798;48.486;9.232;2022-07-06T12:54:19;11.93;;;5.03;;
3567;SDS011;1798;48.486;9.232;2022-07-06T12:56:56;11.40;;;5.60;;
3567;SDS011;1798;48.486;9.232;2022-07-06T12:59:35;7.90;;;5.43;;
3567;SDS011;1798;48.486;9.232;2022-07-06T13:02:03;9.37;;;4.77;;
3567;SDS011;1798;48.486;9.232;2022-07-06T13:04:31;8.23;;;4.80;;
3567;SDS011;1798;48.486;9.232;2022-07-06T13:06:58;7.17;;;4.77;;
3567;SDS011;1798;48.486;9.232;2022-07-06T13:09:26;9.90;;;4.97;;
3567;SDS011;1798;48.486;9.232;2022-07-06T13:11:53;10.07;;;4.60;;
3567;SDS011;1798;48.486;9.232;2022-07-06T13:14:20;8.10;;;5.30;;
3567;SDS011;1798;48.486;9.232;2022-07-06T13:16:48;8.73;;;5.00;;
3567;SDS011;1798;48.486;9.232;2022-07-06T13:19:15;12.33;;;4.97;;
3567;SDS011;1798;48.486;9.232;2022-07-06T13:21:42;9.40;;;5.53;;
3567;SDS011;1798;48.486;9.232;2022-07-06T13:24:10;22.93;;;5.73;;
3567;SDS011;1798;48.486;9.232;2022-07-06T13:26:36;20.03;;;8.03;;
3567;SDS011;1798;48.486;9.232;2022-07-06T13:29:03;8.37;;;4.90;;
3567;SDS011;1798;48.486;9.232;2022-07-06T13:31:30;12.53;;;5.27;;
3567;SDS011;1798;48.486;9.232;2022-07-06T13:33:58;8.20;;;5.00;;
3567;SDS011;1798;48.486;9.232;2022-07-06T13:36:25;7.27;;;4.70;;
3567;SDS011;1798;48.486;9.232;2022-07-06T13:38:52;14.37;;;6.27;;
3567;SDS011;1798;48.486;9.232;2022-07-06T13:41:19;13.03;;;5.37;;
3567;SDS011;1798;48.486;9.232;2022-07-06T13:43:46;6.90;;;4.67;;
3567;SDS011;1798;48.486;9.232;2022-07-06T13:46:12;10.83;;;5.50;;
3567;SDS011;1798;48.486;9.232;2022-07-06T13:48:41;6.77;;;4.80;;
3567;SDS011;1798;48.486;9.232;2022-07-06T13:51:10;7.80;;;4.47;;
3567;SDS011;1798;48.486;9.232;2022-07-06T13:53:37;6.97;;;4.80;;
3567;SDS011;1798;48.486;9.232;2022-07-06T13:56:04;12.27;;;5.93;;
3567;SDS011;1798;48.486;9.232;2022-07-06T13:58:33;11.63;;;5.47;;
3567;SDS011;1798;48.486;9.232;2022-07-06T14:01:00;8.47;;;5.50;;
3567;SDS011;1798;48.486;9.232;2022-07-06T14:03:27;7.33;;;4.50;;
3567;SDS011;1798;48.486;9.232;2022-07-06T14:05:55;7.57;;;4.37;;
3567;SDS011;1798;48.486;9.232;2022-07-06T14:08:24;12.00;;;5.00;;
3567;SDS011;1798;48.486;9.232;2022-07-06T14:10:51;6.60;;;4.60;;
3567;SDS011;1798;48.486;9.232;2022-07-06T14:13:18;12.50;;;5.27;;
3567;SDS011;1798;48.486;9.232;2022-07-06T14:15:45;21.17;;;6.00;;
3567;SDS011;1798;48.486;9.232;2022-07-06T14:18:12;14.53;;;5.70;;
3567;SDS011;1798;48.486;9.232;2022-07-06T14:20:42;8.30;;;5.47;;
3567;SDS011;1798;48.486;9.232;2022-07-06T14:23:10;14.27;;;5.30;;
3567;SDS011;1798;48.486;9.232;2022-07-06T14:25:38;18.23;;;6.30;;
3567;SDS011;1798;48.486;9.232;2022-07-06T14:28:06;25.97;;;5.57;;
3567;SDS011;1798;48.486;9.232;2022-07-06T14:30:33;8.83;;;4.90;;
3567;SDS011;1798;48.486;9.232;2022-07-06T14:33:02;8.77;;;5.30;;
3567;SDS011;1798;48.486;9.232;2022-07-06T14:35:32;10.10;;;5.13;;
3567;SDS011;1798;48.486;9.232;2022-07-06T14:37:59;6.33;;;4.37;;
3567;SDS011;1798;48.486;9.232;2022-07-06T14:40:26;10.23;;;5.10;;
3567;SDS011;1798;48.486;9.232;2022-07-06T14:42:55;8.80;;;4.43;;
3567;SDS011;1798;48.486;9.232;2022-07-06T14:45:21;22.93;;;5.27;;
3567;SDS011;1798;48.486;9.232;2022-07-06T14:47:48;10.50;;;5.13;;
3567;SDS011;1798;48.486;9.232;2022-07-06T14:50:15;6.83;;;4.30;;
3567;SDS011;1798;48.486;9.232;2022-07-06T14:52:42;12.10;;;5.20;;
3567;SDS011;1798;48.486;9.232;2022-07-06T14:55:09;8.97;;;5.53;;
3567;SDS011;1798;48.486;9.232;2022-07-06T14:57:35;14.20;;;5.57;;
3567;SDS011;1798;48.486;9.232;2022-07-06T15:00:04;11.67;;;5.30;;
3567;SDS011;1798;48.486;9.232;2022-07-06T15:02:34;41.07;;;5.57;;
3567;SDS011;1798;48.486;9.232;2022-07-06T15:05:01;9.80;;;5.13;;
3567;SDS011;1798;48.486;9.232;2022-07-06T15:07:29;18.00;;;5.07;;
3567;SDS011;1798;48.486;9.232;2022-07-06T15:09:56;7.53;;;4.90;;
3567;SDS011;1798;48.486;9.232;2022-07-06T15:12:23;6.90;;;5.20;;
3567;SDS011;1798;48.486;9.232;2022-07-06T15:14:50;5.13;;;3.97;;
3567;SDS011;1798;48.486;9.232;2022-07-06T15:17:18;9.60;;;5.10;;